Time;durP1;ratioP1;P1;durP2;ratioP2;P2;SDS_P1;SDS_P2;PMS_P1;PMS_P2;Temp;Humidity;BMP_temperature;BMP_pressure;BME280_temperature;BME280_humidity;BME280_pressure;Samples;Min_cycle;Max_cycle;Signal;HPM_P1;HPM_P2
2022/05/27 00:01:28;;;;;;;;;;;;;;;;;;5092984;28;1234;-72
2022/05/27 00:03:55;;;;;;;;;;;;;;;;;;5093160;28;1066;-72
2022/05/27 00:06:21;;;;;;;;;;;;;;;;;;5092757;28;1059;-71
2022/05/27 00:08:47;;;;;;;;;;;;;;;;;;5093101;28;1973;-71
2022/05/27 00:11:13;;;;;;;;;;;;;;;;;;5092918;28;1388;-71
2022/05/27 00:13:40;;;;;;;;;;;;;;;;;;5092727;28;1067;-73
2022/05/27 00:16:08;;;;;;;;;;;;;;;;;;5074674;28;1224;-70
2022/05/27 00:18:34;;;;;;;;;;;;;;;;;;5092821;28;1075;-73
2022/05/27 00:21:00;;;;;;;;;;;;;;;;;;5092578;28;1329;-73
2022/05/27 00:23:26;;;;;;;;;;;;;;;;;;5092520;28;846;-72
2022/05/27 00:25:53;;;;;;;;;;;;;;;;;;5092711;28;1074;-72
2022/05/27 00:28:19;;;;;;;;;;;;;;;;;;5092222;28;1977;-71
2022/05/27 00:30:45;;;;;;;;;;;;;;;;;;5092589;28;1368;-71
2022/05/27 00:33:13;;;;;;;;;;;;;;;;;;5092306;28;1083;-71
2022/05/27 00:35:39;;;;;;;;;;;;;;;;;;5092512;28;1498;-71
2022/05/27 00:38:05;;;;;;;;;;;;;;;;;;5092125;28;1075;-72
2022/05/27 00:40:35;;;;;;;;;;;;;;;;;;5092015;28;1430;-71
2022/05/27 00:43:01;;;;;;;;;;;;;;;;;;5092419;28;1080;-71
2022/05/27 00:45:28;;;;;;;;;;;;;;;;;;5092408;28;746;-71
2022/05/27 00:47:56;;;;;;;;;;;;;;;;;;5091773;28;1910;-70
2022/05/27 00:50:25;;;;;;;;;;;;;;;;;;5071277;28;1476;-71
2022/05/27 00:52:51;;;;;;;;;;;;;;;;;;5092459;28;1079;-71
2022/05/27 00:55:18;;;;;;;;;;;;;;;;;;5092712;28;1007;-71
2022/05/27 00:57:45;;;;;;;;;;;;;;;;;;5092124;28;969;-70
2022/05/27 01:00:13;;;;;;;;;;;;;;;;;;5092195;28;1309;-70
2022/05/27 01:02:39;;;;;;;;;;;;;;;;;;5074132;28;1406;-71
2022/05/27 01:05:07;;;;;;;;;;;;;;;;;;5092181;28;1064;-71
2022/05/27 01:07:35;;;;;;;;;;;;;;;;;;5073635;28;1971;-70
2022/05/27 01:10:01;;;;;;;;;;;;;;;;;;5091927;28;1402;-69
2022/05/27 01:12:32;;;;;;;;;;;;;;;;;;5091426;28;1127;-72
2022/05/27 01:15:02;;;;;;;;;;;;;;;;;;5091958;28;1064;-70
2022/05/27 01:17:29;;;;;;;;;;;;;;;;;;5091754;28;1059;-72
2022/05/27 01:20:21;;;;;;;;;;;;;;;;;;5091972;28;941;-70
2022/05/27 01:23:22;;;;;;;;;;;;;;;;;;5091690;28;806;-71
2022/05/27 01:25:55;;;;;;;;;;;;;;;;;;5091657;28;1119;-69
2022/05/27 01:28:36;;;;;;;;;;;;;;;;;;5091089;28;1914;-70
2022/05/27 01:31:05;;;;;;;;;;;;;;;;;;5087169;28;1312;-71
2022/05/27 01:33:35;;;;;;;;;;;;;;;;;;5091344;28;1052;-71
2022/05/27 01:36:04;;;;;;;;;;;;;;;;;;5091144;28;858;-70
2022/05/27 01:38:33;;;;;;;;;;;;;;;;;;5091071;28;937;-70
2022/05/27 01:41:02;;;;;;;;;;;;;;;;;;5073176;28;1341;-70
2022/05/27 01:43:29;;;;;;;;;;;;;;;;;;5091236;28;774;-70
2022/05/27 01:45:56;;;;;;;;;;;;;;;;;;5091241;28;1075;-71
2022/05/27 01:48:26;;;;;;;;;;;;;;;;;;5090870;28;1975;-70
2022/05/27 01:50:55;;;;;;;;;;;;;;;;;;5091092;28;1368;-71
2022/05/27 01:53:23;;;;;;;;;;;;;;;;;;5091238;28;1300;-70
2022/05/27 01:55:50;;;;;;;;;;;;;;;;;;5091150;28;861;-71
2022/05/27 01:58:18;;;;;;;;;;;;;;;;;;5090796;28;1075;-70
2022/05/27 02:00:44;;;;;;;;;;;;;;;;;;5091064;28;1294;-71
2022/05/27 02:03:11;;;;;;;;;;;;;;;;;;5090842;28;953;-69
2022/05/27 02:05:40;;;;;;;;;;;;;;;;;;5091081;28;1059;-70
2022/05/27 02:08:07;;;;;;;;;;;;;;;;;;5090740;28;1918;-71
2022/05/27 02:10:33;;;;;;;;;;;;;;;;;;5090901;28;1664;-71
2022/05/27 02:13:01;;;;;;;;;;;;;;;;;;5090967;28;1079;-69
2022/05/27 02:15:28;;;;;;;;;;;;;;;;;;5091178;28;1138;-70
2022/05/27 02:17:55;;;;;;;;;;;;;;;;;;5090926;28;1075;-70
2022/05/27 02:20:23;;;;;;;;;;;;;;;;;;5090493;28;1342;-70
2022/05/27 02:22:52;;;;;;;;;;;;;;;;;;5091062;28;956;-70
2022/05/27 02:25:18;;;;;;;;;;;;;;;;;;5090823;28;1059;-71
2022/05/27 02:27:47;;;;;;;;;;;;;;;;;;5090771;28;1119;-70
2022/05/27 02:30:14;;;;;;;;;;;;;;;;;;5090787;28;1918;-71
2022/05/27 02:32:41;;;;;;;;;;;;;;;;;;5090945;28;1142;-70
2022/05/27 02:35:09;;;;;;;;;;;;;;;;;;5090936;28;1071;-71
2022/05/27 02:37:37;;;;;;;;;;;;;;;;;;5090442;28;1139;-70
2022/05/27 02:40:05;;;;;;;;;;;;;;;;;;5072170;28;1357;-70
2022/05/27 02:42:33;;;;;;;;;;;;;;;;;;5090417;28;1075;-70
2022/05/27 02:45:03;;;;;;;;;;;;;;;;;;5090786;28;809;-70
2022/05/27 02:47:30;;;;;;;;;;;;;;;;;;5073885;28;1324;-70
2022/05/27 02:49:58;;;;;;;;;;;;;;;;;;5094365;28;1970;-70
2022/05/27 02:52:31;;;;;;;;;;;;;;;;;;5090981;28;1490;-70
2022/05/27 02:55:01;;;;;;;;;;;;;;;;;;5094390;28;1060;-70
2022/05/27 02:57:33;;;;;;;;;;;;;;;;;;5075824;28;1009;-71
2022/05/27 03:00:01;;;;;;;;;;;;;;;;;;5094015;28;1075;-70
2022/05/27 03:02:27;;;;;;;;;;;;;;;;;;5093994;28;1504;-70
2022/05/27 03:04:54;;;;;;;;;;;;;;;;;;5094233;28;1064;-70
2022/05/27 03:07:25;;;;;;;;;;;;;;;;;;5093916;28;833;-70
2022/05/27 03:09:52;;;;;;;;;;;;;;;;;;5094333;28;1975;-70
2022/05/27 03:12:23;;;;;;;;;;;;;;;;;;5093742;28;1427;-69
2022/05/27 03:15:13;;;;;;;;;;;;;;;;;;5084287;28;1602;-70
2022/05/27 03:17:43;;;;;;;;;;;;;;;;;;5057291;28;1150;-70
2022/05/27 03:20:12;;;;;;;;;;;;;;;;;;5073585;28;1316;-71
2022/05/27 03:22:44;;;;;;;;;;;;;;;;;;5073767;28;1071;-70
2022/05/27 03:25:14;;;;;;;;;;;;;;;;;;5073636;28;1290;-69
2022/05/27 03:27:41;;;;;;;;;;;;;;;;;;5073365;28;790;-70
2022/05/27 03:30:08;;;;;;;;;;;;;;;;;;5073274;28;1910;-70
2022/05/27 03:32:37;;;;;;;;;;;;;;;;;;5073355;28;1099;-70
2022/05/27 03:35:07;;;;;;;;;;;;;;;;;;5073339;28;1059;-69
2022/05/27 03:37:35;;;;;;;;;;;;;;;;;;5072807;28;1056;-70
2022/05/27 03:40:03;;;;;;;;;;;;;;;;;;5073322;28;1305;-69
2022/05/27 03:42:29;;;;;;;;;;;;;;;;;;5086077;22;3554;-69
2022/05/27 03:44:57;;;;;;;;;;;;;;;;;;5072656;28;1137;-69
2022/05/27 03:47:23;;;;;;;;;;;;;;;;;;5072995;28;952;-70
2022/05/27 03:49:49;;;;;;;;;;;;;;;;;;5073210;28;1918;-69
2022/05/27 03:52:18;;;;;;;;;;;;;;;;;;5072915;28;1308;-69
2022/05/27 03:54:44;;;;;;;;;;;;;;;;;;5072868;28;1072;-69
2022/05/27 03:57:10;;;;;;;;;;;;;;;;;;5072885;28;850;-69
2022/05/27 03:59:36;;;;;;;;;;;;;;;;;;5072549;28;944;-69
2022/05/27 04:02:03;;;;;;;;;;;;;;;;;;5071527;28;1827;-70
2022/05/27 04:04:29;;;;;;;;;;;;;;;;;;5054867;28;1132;-69
2022/05/27 04:06:56;;;;;;;;;;;;;;;;;;5072569;28;1032;-69
2022/05/27 04:09:24;;;;;;;;;;;;;;;;;;5072542;28;1914;-69
2022/05/27 04:11:50;;;;;;;;;;;;;;;;;;5072573;28;1366;-69
2022/05/27 04:14:17;;;;;;;;;;;;;;;;;;5072265;28;806;-69
2022/05/27 04:16:43;;;;;;;;;;;;;;;;;;5072500;28;882;-69
2022/05/27 04:19:09;;;;;;;;;;;;;;;;;;5072692;28;1063;-70
2022/05/27 04:21:35;;;;;;;;;;;;;;;;;;5072501;28;1328;-69
2022/05/27 04:24:01;;;;;;;;;;;;;;;;;;5070863;28;1606;-69
2022/05/27 04:26:29;;;;;;;;;;;;;;;;;;5071758;28;1325;-69
2022/05/27 04:28:55;;;;;;;;;;;;;;;;;;5072136;28;1922;-69
2022/05/27 04:31:21;;;;;;;;;;;;;;;;;;5052535;28;1663;-70
2022/05/27 04:33:48;;;;;;;;;;;;;;;;;;5072293;28;1170;-69
2022/05/27 04:36:15;;;;;;;;;;;;;;;;;;5051875;28;1154;-69
2022/05/27 04:38:41;;;;;;;;;;;;;;;;;;5034519;28;1060;-69
2022/05/27 04:41:07;;;;;;;;;;;;;;;;;;5067538;28;1800;-68
2022/05/27 04:43:35;;;;;;;;;;;;;;;;;;5069373;28;1497;-70
2022/05/27 04:46:01;;;;;;;;;;;;;;;;;;5068573;28;1642;-70
2022/05/27 04:48:27;;;;;;;;;;;;;;;;;;5069904;28;1431;-70
2022/05/27 04:50:53;;;;;;;;;;;;;;;;;;5070292;28;1989;-70
2022/05/27 04:53:20;;;;;;;;;;;;;;;;;;5070939;28;1712;-70
2022/05/27 04:55:46;;;;;;;;;;;;;;;;;;5071439;28;1259;-70
2022/05/27 04:58:12;;;;;;;;;;;;;;;;;;5071213;28;1259;-71
2022/05/27 05:00:41;;;;;;;;;;;;;;;;;;5071482;28;1199;-70
2022/05/27 05:03:08;;;;;;;;;;;;;;;;;;5071501;28;1387;-70
2022/05/27 05:05:35;;;;;;;;;;;;;;;;;;5071664;28;1015;-70
2022/05/27 05:08:02;;;;;;;;;;;;;;;;;;5070689;28;1261;-70
2022/05/27 05:10:29;;;;;;;;;;;;;;;;;;5070447;28;1922;-71
2022/05/27 05:12:55;;;;;;;;;;;;;;;;;;5070506;28;1506;-70
2022/05/27 05:15:22;;;;;;;;;;;;;;;;;;5070979;28;1227;-70
2022/05/27 05:17:49;;;;;;;;;;;;;;;;;;5052871;28;1421;-71
2022/05/27 05:20:16;;;;;;;;;;;;;;;;;;5070287;28;1134;-71
2022/05/27 05:22:43;;;;;;;;;;;;;;;;;;5071075;28;1364;-71
2022/05/27 05:25:09;;;;;;;;;;;;;;;;;;5071390;28;889;-70
2022/05/27 05:27:38;;;;;;;;;;;;;;;;;;5071076;28;1005;-70
2022/05/27 05:30:05;;;;;;;;;;;;;;;;;;5070548;28;1977;-70
2022/05/27 05:32:32;;;;;;;;;;;;;;;;;;5070833;28;1388;-70
2022/05/27 05:34:59;;;;;;;;;;;;;;;;;;5071001;28;1307;-72
2022/05/27 05:37:26;;;;;;;;;;;;;;;;;;5070090;28;1555;-71
2022/05/27 05:39:52;;;;;;;;;;;;;;;;;;5071008;28;1251;-70
2022/05/27 05:42:18;;;;;;;;;;;;;;;;;;5070107;28;1381;-70
2022/05/27 05:44:44;;;;;;;;;;;;;;;;;;5070493;28;1299;-70
2022/05/27 05:47:10;;;;;;;;;;;;;;;;;;5069885;28;1236;-71
2022/05/27 05:49:37;;;;;;;;;;;;;;;;;;5070638;28;1972;-70
2022/05/27 05:52:04;;;;;;;;;;;;;;;;;;5067620;28;2071;-68
2022/05/27 05:54:31;;;;;;;;;;;;;;;;;;5071245;28;1721;-71
2022/05/27 05:56:59;;;;;;;;;;;;;;;;;;5072087;28;1384;-72
2022/05/27 05:59:26;;;;;;;;;;;;;;;;;;5085904;28;1217;-70
2022/05/27 06:01:52;;;;;;;;;;;;;;;;;;5067651;28;1602;-69
2022/05/27 06:04:18;;;;;;;;;;;;;;;;;;5070782;28;1189;-71
2022/05/27 06:06:44;;;;;;;;;;;;;;;;;;5070639;28;1006;-71
2022/05/27 06:09:12;;;;;;;;;;;;;;;;;;5062232;28;1914;-71
2022/05/27 06:11:38;;;;;;;;;;;;;;;;;;5067250;28;1430;-70
2022/05/27 06:14:04;;;;;;;;;;;;;;;;;;5067926;28;1126;-71
2022/05/27 06:16:31;;;;;;;;;;;;;;;;;;5068079;28;842;-70
2022/05/27 06:18:57;;;;;;;;;;;;;;;;;;5068206;28;1119;-72
2022/05/27 06:21:23;;;;;;;;;;;;;;;;;;5069394;28;1333;-71
2022/05/27 06:23:49;;;;;;;;;;;;;;;;;;5072103;28;972;-70
2022/05/27 06:26:17;;;;;;;;;;;;;;;;;;5070819;28;1205;-70
2022/05/27 06:34:25;;;;;;;;;;;;;;;;;;5073653;28;1173;-70
2022/05/27 06:36:53;;;;;;;;;;;;;;;;;;5074280;28;941;-70
2022/05/27 06:39:20;;;;;;;;;;;;;;;;;;5074659;28;1083;-70
2022/05/27 06:41:47;;;;;;;;;;;;;;;;;;5074028;28;1293;-70
2022/05/27 06:44:13;;;;;;;;;;;;;;;;;;5074279;28;1064;-70
2022/05/27 06:46:40;;;;;;;;;;;;;;;;;;5074242;28;1086;-70
2022/05/27 06:49:07;;;;;;;;;;;;;;;;;;5072853;28;1116;-70
2022/05/27 06:51:34;;;;;;;;;;;;;;;;;;5073945;28;1915;-71
2022/05/27 06:54:00;;;;;;;;;;;;;;;;;;5072144;28;1622;-69
2022/05/27 06:56:26;;;;;;;;;;;;;;;;;;5073548;28;1475;-70
2022/05/27 06:58:54;;;;;;;;;;;;;;;;;;5072545;28;1482;-71
2022/05/27 07:01:20;;;;;;;;;;;;;;;;;;5059316;28;1589;-70
2022/05/27 07:03:46;;;;;;;;;;;;;;;;;;5055861;28;1221;-69
2022/05/27 07:06:13;;;;;;;;;;;;;;;;;;5071171;28;1415;-70
2022/05/27 07:08:39;;;;;;;;;;;;;;;;;;5073687;28;1130;-69
2022/05/27 07:11:05;;;;;;;;;;;;;;;;;;5073712;28;1977;-70
2022/05/27 07:13:31;;;;;;;;;;;;;;;;;;5072103;28;1479;-71
2022/05/27 07:15:59;;;;;;;;;;;;;;;;;;5073619;28;1189;-70
2022/05/27 07:18:25;;;;;;;;;;;;;;;;;;5073476;28;940;-70
2022/05/27 07:20:51;;;;;;;;;;;;;;;;;;5073478;28;1414;-70
2022/05/27 07:23:18;;;;;;;;;;;;;;;;;;5073425;28;1142;-71
2022/05/27 07:25:44;;;;;;;;;;;;;;;;;;5073606;28;1110;-70
2022/05/27 07:28:12;;;;;;;;;;;;;;;;;;5073278;28;1138;-70
2022/05/27 07:30:39;;;;;;;;;;;;;;;;;;5073423;28;1906;-70
2022/05/27 07:33:06;;;;;;;;;;;;;;;;;;5072409;28;1465;-70
2022/05/27 07:35:32;;;;;;;;;;;;;;;;;;5073630;28;865;-71
2022/05/27 07:37:58;;;;;;;;;;;;;;;;;;5073185;28;944;-71
2022/05/27 07:40:25;;;;;;;;;;;;;;;;;;5072354;28;1434;-71
2022/05/27 07:42:51;;;;;;;;;;;;;;;;;;5072915;28;1368;-70
2022/05/27 07:45:18;;;;;;;;;;;;;;;;;;5073103;28;1051;-71
2022/05/27 07:47:44;;;;;;;;;;;;;;;;;;5072976;28;1134;-71
2022/05/27 07:50:13;;;;;;;;;;;;;;;;;;5073009;28;1914;-71
2022/05/27 07:52:39;;;;;;;;;;;;;;;;;;5072941;28;1309;-70
2022/05/27 07:55:06;;;;;;;;;;;;;;;;;;5073010;28;1116;-70
2022/05/27 07:57:32;;;;;;;;;;;;;;;;;;5072886;28;1126;-71
2022/05/27 07:59:59;;;;;;;;;;;;;;;;;;5072756;28;830;-70
2022/05/27 08:02:26;;;;;;;;;;;;;;;;;;5072828;28;1377;-71
2022/05/27 08:04:52;;;;;;;;;;;;;;;;;;5072418;28;1122;-70
2022/05/27 08:07:20;;;;;;;;;;;;;;;;;;5072629;28;1075;-70
2022/05/27 08:09:47;;;;;;;;;;;;;;;;;;5072814;28;1914;-70
2022/05/27 08:12:13;;;;;;;;;;;;;;;;;;5072106;28;1378;-70
2022/05/27 08:14:39;;;;;;;;;;;;;;;;;;5072132;28;1107;-70
2022/05/27 08:17:05;;;;;;;;;;;;;;;;;;5071798;28;1146;-70
2022/05/27 08:19:31;;;;;;;;;;;;;;;;;;5072218;28;837;-70
2022/05/27 08:21:57;;;;;;;;;;;;;;;;;;5071919;28;1308;-70
2022/05/27 08:24:25;;;;;;;;;;;;;;;;;;5071886;28;891;-70
2022/05/27 08:26:51;;;;;;;;;;;;;;;;;;5071696;28;786;-71
2022/05/27 08:29:17;;;;;;;;;;;;;;;;;;5070027;28;1468;-70
2022/05/27 08:31:43;;;;;;;;;;;;;;;;;;5070857;28;1914;-70
2022/05/27 08:39:39;;;;;;;;;;;;;;;;;;5053717;28;976;-70
2022/05/27 08:42:07;;;;;;;;;;;;;;;;;;5053242;28;1395;-70
2022/05/27 08:44:36;;;;;;;;;;;;;;;;;;5069587;28;1813;-71
2022/05/27 08:47:03;;;;;;;;;;;;;;;;;;5081429;28;1157;-70
2022/05/27 08:49:31;;;;;;;;;;;;;;;;;;5091894;28;820;-71
2022/05/27 08:51:57;;;;;;;;;;;;;;;;;;5091516;28;1965;-71
2022/05/27 08:54:24;;;;;;;;;;;;;;;;;;5091764;28;901;-70
2022/05/27 08:59:39;;;;;;;;;;;;;;;;;;5084063;28;1567;-71
2022/05/27 09:02:07;;;;;;;;;;;;;;;;;;5053294;28;1486;-71
2022/05/27 09:04:36;;;;;;;;;;;;;;;;;;5073906;28;1519;-71
2022/05/27 09:07:04;;;;;;;;;;;;;;;;;;5071039;28;1060;-70
2022/05/27 09:09:31;;;;;;;;;;;;;;;;;;5070947;28;1459;-71
2022/05/27 09:12:06;;;;;;;;;;;;;;;;;;5070739;28;1911;-71
2022/05/27 09:14:33;;;;;;;;;;;;;;;;;;5071113;28;889;-70
2022/05/27 09:17:00;;;;;;;;;;;;;;;;;;5070722;28;1088;-71
2022/05/27 09:19:27;;;;;;;;;;;;;;;;;;5071048;28;1151;-70
2022/05/27 09:21:56;;;;;;;;;;;;;;;;;;5070504;28;1397;-70
2022/05/27 09:24:24;;;;;;;;;;;;;;;;;;5070866;28;1114;-71
2022/05/27 09:26:52;;;;;;;;;;;;;;;;;;5070475;28;908;-71
2022/05/27 09:29:26;;;;;;;;;;;;;;;;;;5070719;28;1067;-71
2022/05/27 09:31:54;;;;;;;;;;;;;;;;;;5070450;28;1914;-70
2022/05/27 09:34:20;;;;;;;;;;;;;;;;;;5070648;28;1083;-71
2022/05/27 09:36:47;;;;;;;;;;;;;;;;;;5070422;28;786;-70
2022/05/27 09:39:14;;;;;;;;;;;;;;;;;;5070315;28;727;-70
2022/05/27 09:41:41;;;;;;;;;;;;;;;;;;5070361;28;1290;-71
2022/05/27 09:46:35;;;;;;;;;;;;;;;;;;5023976;28;1869;-74
2022/05/27 09:49:01;;;;;;;;;;;;;;;;;;5030361;28;1243;-74
2022/05/27 09:51:29;;;;;;;;;;;;;;;;;;5028997;28;1918;-75
2022/05/27 09:53:57;;;;;;;;;;;;;;;;;;5030412;28;779;-74
2022/05/27 09:56:33;;;;;;;;;;;;;;;;;;5046861;28;1310;-71
2022/05/27 09:59:01;;;;;;;;;;;;;;;;;;5050297;28;1276;-72
2022/05/27 10:01:28;;;;;;;;;;;;;;;;;;5050565;28;1454;-72
2022/05/27 10:04:03;;;;;;;;;;;;;;;;;;5032668;28;1187;-72
2022/05/27 10:06:32;;;;;;;;;;;;;;;;;;5031875;28;1876;-72
2022/05/27 10:08:59;;;;;;;;;;;;;;;;;;5050181;28;1072;-73
2022/05/27 10:11:26;;;;;;;;;;;;;;;;;;5049941;28;1914;-72
2022/05/27 10:14:08;;;;;;;;;;;;;;;;;;5049990;28;792;-72
2022/05/27 10:16:34;;;;;;;;;;;;;;;;;;5028533;28;2173;-72
2022/05/27 10:19:10;;;;;;;;;;;;;;;;;;5050459;28;984;-72
2022/05/27 10:21:48;;;;;;;;;;;;;;;;;;5044436;28;2069;-73
2022/05/27 10:24:15;;;;;;;;;;;;;;;;;;5030626;28;1479;-73
2022/05/27 10:26:41;;;;;;;;;;;;;;;;;;5020481;28;1545;-71
2022/05/27 10:29:10;;;;;;;;;;;;;;;;;;5036999;28;1146;-72
2022/05/27 10:31:36;;;;;;;;;;;;;;;;;;5026468;28;1910;-72
2022/05/27 10:34:02;;;;;;;;;;;;;;;;;;5037831;28;1266;-73
2022/05/27 10:36:40;;;;;;;;;;;;;;;;;;5035152;28;1504;-74
2022/05/27 10:39:07;;;;;;;;;;;;;;;;;;5036832;28;1336;-73
2022/05/27 10:41:37;;;;;;;;;;;;;;;;;;5038028;28;1195;-72
2022/05/27 10:44:08;;;;;;;;;;;;;;;;;;5048272;28;1392;-73
2022/05/27 10:46:39;;;;;;;;;;;;;;;;;;5031294;28;1247;-72
2022/05/27 10:49:23;;;;;;;;;;;;;;;;;;5049704;28;806;-71
2022/05/27 10:51:55;;;;;;;;;;;;;;;;;;5014937;28;1914;-73
2022/05/27 10:54:32;;;;;;;;;;;;;;;;;;5019052;28;1373;-73
2022/05/27 11:02:36;;;;;;;;;;;;;;;;;;5042250;28;1047;-73
2022/05/27 11:05:16;;;;;;;;;;;;;;;;;;5046608;28;1379;-73
2022/05/27 11:07:50;;;;;;;;;;;;;;;;;;5037885;28;1437;-74
2022/05/27 11:10:22;;;;;;;;;;;;;;;;;;5042689;28;1177;-73
2022/05/27 11:15:38;;;;;;;;;;;;;;;;;;5050420;28;1310;-73
2022/05/27 11:18:07;;;;;;;;;;;;;;;;;;5038567;28;1413;-73
2022/05/27 11:20:39;;;;;;;;;;;;;;;;;;5034842;28;1394;-73
2022/05/27 11:23:09;;;;;;;;;;;;;;;;;;5037035;28;1355;-73
2022/05/27 11:25:39;;;;;;;;;;;;;;;;;;5020864;28;1457;-73
2022/05/27 11:28:29;;;;;;;;;;;;;;;;;;5050266;28;1170;-73
2022/05/27 11:30:58;;;;;;;;;;;;;;;;;;5019407;28;1915;-74
2022/05/27 11:33:36;;;;;;;;;;;;;;;;;;5052567;28;1107;-74
2022/05/27 11:36:10;;;;;;;;;;;;;;;;;;5052606;28;1337;-72
2022/05/27 11:38:51;;;;;;;;;;;;;;;;;;5052446;28;1119;-73
2022/05/27 11:41:19;;;;;;;;;;;;;;;;;;5043444;28;1421;-74
2022/05/27 11:43:47;;;;;;;;;;;;;;;;;;5048524;28;1217;-73
2022/05/27 11:46:27;;;;;;;;;;;;;;;;;;5052322;28;1464;-74
2022/05/27 11:48:54;;;;;;;;;;;;;;;;;;5034477;28;1053;-73
2022/05/27 11:51:25;;;;;;;;;;;;;;;;;;5034248;28;1980;-76
2022/05/27 11:54:08;;;;;;;;;;;;;;;;;;5020056;28;2086;-73
2022/05/27 11:56:37;;;;;;;;;;;;;;;;;;5034162;28;1558;-71
2022/05/27 11:59:04;;;;;;;;;;;;;;;;;;5041262;28;1395;-74
2022/05/27 12:01:33;;;;;;;;;;;;;;;;;;5046301;28;1645;-73
2022/05/27 12:04:00;;;;;;;;;;;;;;;;;;5032200;28;1330;-74
2022/05/27 12:06:29;;;;;;;;;;;;;;;;;;5031875;28;1404;-75
2022/05/27 12:08:58;;;;;;;;;;;;;;;;;;5032465;28;1046;-74
2022/05/27 12:11:27;;;;;;;;;;;;;;;;;;5032124;28;1910;-73
2022/05/27 12:13:54;;;;;;;;;;;;;;;;;;5030298;28;952;-74
2022/05/27 12:16:21;;;;;;;;;;;;;;;;;;5038999;28;1450;-74
2022/05/27 12:18:48;;;;;;;;;;;;;;;;;;5033473;28;1428;-75
2022/05/27 12:21:15;;;;;;;;;;;;;;;;;;5034156;28;1004;-74
2022/05/27 12:23:42;;;;;;;;;;;;;;;;;;5051552;28;1111;-75
2022/05/27 12:26:09;;;;;;;;;;;;;;;;;;5051583;28;1301;-74
2022/05/27 12:28:37;;;;;;;;;;;;;;;;;;5051742;28;1056;-73
2022/05/27 12:31:03;;;;;;;;;;;;;;;;;;5051998;28;741;-73
2022/05/27 12:33:30;;;;;;;;;;;;;;;;;;5051197;28;1981;-73
2022/05/27 12:35:59;;;;;;;;;;;;;;;;;;5033834;28;1468;-75
2022/05/27 12:38:26;;;;;;;;;;;;;;;;;;5042687;28;1210;-73
2022/05/27 12:40:53;;;;;;;;;;;;;;;;;;5051249;28;961;-71
2022/05/27 12:43:24;;;;;;;;;;;;;;;;;;5032277;28;1419;-72
2022/05/27 12:45:52;;;;;;;;;;;;;;;;;;5031380;28;1317;-73
2022/05/27 12:48:34;;;;;;;;;;;;;;;;;;5029480;28;1548;-73
2022/05/27 12:51:01;;;;;;;;;;;;;;;;;;5040293;28;1363;-71
2022/05/27 12:53:39;;;;;;;;;;;;;;;;;;5036999;28;1918;-71
2022/05/27 13:02:32;;;;;;;;;;;;;;;;;;5038583;28;1533;-73
2022/05/27 13:05:01;;;;;;;;;;;;;;;;;;5039255;28;1392;-72
2022/05/27 13:07:43;;;;;;;;;;;;;;;;;;5030488;28;1122;-72
2022/05/27 13:10:33;;;;;;;;;;;;;;;;;;5031056;28;865;-72
2022/05/27 13:13:00;;;;;;;;;;;;;;;;;;5030885;28;1928;-72
2022/05/27 13:15:29;;;;;;;;;;;;;;;;;;5030852;28;1399;-72
2022/05/27 13:18:06;;;;;;;;;;;;;;;;;;5030566;28;1126;-72
2022/05/27 13:20:41;;;;;;;;;;;;;;;;;;5029520;28;1107;-72
2022/05/27 13:23:11;;;;;;;;;;;;;;;;;;5030751;28;1067;-72
2022/05/27 13:25:39;;;;;;;;;;;;;;;;;;5029003;28;1514;-72
2022/05/27 13:28:06;;;;;;;;;;;;;;;;;;5030187;28;1139;-72
2022/05/27 13:30:52;;;;;;;;;;;;;;;;;;5029910;28;945;-73
2022/05/27 13:33:18;;;;;;;;;;;;;;;;;;5030353;28;1977;-73
2022/05/27 13:35:47;;;;;;;;;;;;;;;;;;5030278;28;1368;-70
2022/05/27 13:38:14;;;;;;;;;;;;;;;;;;5030389;28;965;-73
2022/05/27 13:40:40;;;;;;;;;;;;;;;;;;5030269;28;1218;-71
2022/05/27 13:43:07;;;;;;;;;;;;;;;;;;5030217;28;1124;-73
2022/05/27 13:45:35;;;;;;;;;;;;;;;;;;5030029;28;1290;-72
2022/05/27 13:48:02;;;;;;;;;;;;;;;;;;5030241;28;1107;-73
2022/05/27 13:50:36;;;;;;;;;;;;;;;;;;5031030;28;1152;-73
2022/05/27 13:53:19;;;;;;;;;;;;;;;;;;5030191;28;1977;-74
2022/05/27 13:55:45;;;;;;;;;;;;;;;;;;5012445;28;1567;-74
2022/05/27 13:58:11;;;;;;;;;;;;;;;;;;5012151;28;1325;-74
2022/05/27 14:00:38;;;;;;;;;;;;;;;;;;5030202;28;1146;-74
2022/05/27 14:03:04;;;;;;;;;;;;;;;;;;5030331;28;1134;-74
2022/05/27 14:05:31;;;;;;;;;;;;;;;;;;5029813;28;1387;-73
2022/05/27 14:07:58;;;;;;;;;;;;;;;;;;5029964;28;1441;-73
2022/05/27 14:10:27;;;;;;;;;;;;;;;;;;5030319;28;1060;-72
2022/05/27 14:12:54;;;;;;;;;;;;;;;;;;5030134;28;1914;-75
2022/05/27 14:15:22;;;;;;;;;;;;;;;;;;5030189;28;1301;-72
2022/05/27 14:17:49;;;;;;;;;;;;;;;;;;5029705;28;818;-70
2022/05/27 14:20:23;;;;;;;;;;;;;;;;;;5030039;28;1064;-73
2022/05/27 14:22:50;;;;;;;;;;;;;;;;;;5029545;28;1112;-70
2022/05/27 14:25:18;;;;;;;;;;;;;;;;;;5029833;28;1341;-73
2022/05/27 14:27:48;;;;;;;;;;;;;;;;;;5029572;28;1009;-72
2022/05/27 14:30:16;;;;;;;;;;;;;;;;;;5012207;28;1222;-73
2022/05/27 14:32:42;;;;;;;;;;;;;;;;;;5029893;28;1911;-74
2022/05/27 14:35:09;;;;;;;;;;;;;;;;;;5030033;28;1341;-75
2022/05/27 14:37:40;;;;;;;;;;;;;;;;;;5029511;28;1080;-72
2022/05/27 14:40:08;;;;;;;;;;;;;;;;;;5029573;28;1126;-72
2022/05/27 14:42:35;;;;;;;;;;;;;;;;;;5031285;28;980;-72
2022/05/27 14:45:02;;;;;;;;;;;;;;;;;;5032318;28;1580;-73
2022/05/27 14:47:29;;;;;;;;;;;;;;;;;;5037976;28;1413;-74
2022/05/27 14:49:56;;;;;;;;;;;;;;;;;;5042609;28;1428;-71
2022/05/27 14:52:26;;;;;;;;;;;;;;;;;;5046742;28;1934;-73
2022/05/27 14:54:53;;;;;;;;;;;;;;;;;;5035848;28;1496;-72
2022/05/27 14:57:20;;;;;;;;;;;;;;;;;;5043872;28;1365;-72
2022/05/27 14:59:48;;;;;;;;;;;;;;;;;;5027672;28;1412;-73
2022/05/27 15:02:21;;;;;;;;;;;;;;;;;;5024862;28;1329;-72
2022/05/27 15:04:54;;;;;;;;;;;;;;;;;;5044810;28;1395;-72
2022/05/27 15:07:21;;;;;;;;;;;;;;;;;;5053090;28;1103;-74
2022/05/27 15:09:57;;;;;;;;;;;;;;;;;;5053023;28;984;-73
2022/05/27 15:12:24;;;;;;;;;;;;;;;;;;5053125;28;1918;-73
2022/05/27 15:14:50;;;;;;;;;;;;;;;;;;5052976;28;1406;-72
2022/05/27 15:17:24;;;;;;;;;;;;;;;;;;5052851;28;1028;-73
2022/05/27 15:19:52;;;;;;;;;;;;;;;;;;5043356;28;1622;-71
2022/05/27 15:22:18;;;;;;;;;;;;;;;;;;5045245;28;1232;-70
2022/05/27 15:24:47;;;;;;;;;;;;;;;;;;5035704;28;1443;-69
2022/05/27 15:35:31;;;;;;;;;;;;;;;;;;5052619;28;1332;-71
2022/05/27 15:37:58;;;;;;;;;;;;;;;;;;5052265;28;960;-71
2022/05/27 15:40:24;;;;;;;;;;;;;;;;;;5046765;28;1453;-70
2022/05/27 15:42:50;;;;;;;;;;;;;;;;;;5044356;28;1158;-70
2022/05/27 15:45:18;;;;;;;;;;;;;;;;;;5034449;28;1481;-70
2022/05/27 15:47:46;;;;;;;;;;;;;;;;;;5052439;28;913;-68
2022/05/27 15:50:12;;;;;;;;;;;;;;;;;;5052585;28;1142;-70
2022/05/27 15:52:39;;;;;;;;;;;;;;;;;;5044957;22;2377;-70
2022/05/27 15:55:05;;;;;;;;;;;;;;;;;;5031078;28;1205;-70
2022/05/27 15:57:32;;;;;;;;;;;;;;;;;;5037405;28;1464;-70
2022/05/27 15:59:58;;;;;;;;;;;;;;;;;;5043532;28;1166;-70
2022/05/27 16:02:24;;;;;;;;;;;;;;;;;;5042101;28;1365;-70
2022/05/27 16:04:52;;;;;;;;;;;;;;;;;;5035226;28;1257;-70
2022/05/27 16:07:19;;;;;;;;;;;;;;;;;;5031855;28;1134;-70
2022/05/27 16:09:45;;;;;;;;;;;;;;;;;;5032505;28;1110;-70
2022/05/27 16:12:11;;;;;;;;;;;;;;;;;;5031834;28;1320;-71
2022/05/27 16:14:37;;;;;;;;;;;;;;;;;;5031863;28;1989;-68
2022/05/27 16:19:47;;;;;;;;;;;;;;;;;;5040266;28;1349;-70
2022/05/27 16:22:15;;;;;;;;;;;;;;;;;;5039590;28;1421;-70
2022/05/27 16:24:41;;;;;;;;;;;;;;;;;;5038223;28;1491;-70
2022/05/27 16:27:07;;;;;;;;;;;;;;;;;;5032101;28;1369;-70
2022/05/27 16:29:33;;;;;;;;;;;;;;;;;;5012294;28;1461;-69
2022/05/27 16:32:00;;;;;;;;;;;;;;;;;;5042502;28;1344;-68
2022/05/27 16:34:26;;;;;;;;;;;;;;;;;;5050972;28;1918;-70
2022/05/27 16:36:53;;;;;;;;;;;;;;;;;;5040152;28;1416;-70
2022/05/27 16:39:21;;;;;;;;;;;;;;;;;;5044052;28;1185;-70
2022/05/27 16:41:47;;;;;;;;;;;;;;;;;;5048875;28;1481;-69
2022/05/27 16:44:13;;;;;;;;;;;;;;;;;;4998180;28;2280;-70
2022/05/27 16:46:40;;;;;;;;;;;;;;;;;;5039328;28;1305;-69
2022/05/27 16:49:07;;;;;;;;;;;;;;;;;;5020808;28;1437;-69
2022/05/27 16:51:34;;;;;;;;;;;;;;;;;;5028863;28;1322;-70
2022/05/27 16:54:00;;;;;;;;;;;;;;;;;;5046035;28;1938;-69
2022/05/27 16:56:28;;;;;;;;;;;;;;;;;;5048768;28;952;-69
2022/05/27 16:58:54;;;;;;;;;;;;;;;;;;5048789;28;787;-70
2022/05/27 17:01:20;;;;;;;;;;;;;;;;;;5048723;28;1403;-70
2022/05/27 17:03:46;;;;;;;;;;;;;;;;;;5048515;28;1071;-71
2022/05/27 17:06:17;;;;;;;;;;;;;;;;;;5046762;28;1071;-69
2022/05/27 17:08:43;;;;;;;;;;;;;;;;;;5040226;28;1457;-70
2022/05/27 17:11:09;;;;;;;;;;;;;;;;;;5029381;28;1331;-68
2022/05/27 17:13:37;;;;;;;;;;;;;;;;;;5019339;28;2395;-70
2022/05/27 17:16:04;;;;;;;;;;;;;;;;;;5034973;28;1114;-71
2022/05/27 17:18:30;;;;;;;;;;;;;;;;;;5026983;28;1427;-70
2022/05/27 17:20:56;;;;;;;;;;;;;;;;;;5028094;28;1331;-71
2022/05/27 17:23:22;;;;;;;;;;;;;;;;;;5028359;28;795;-70
2022/05/27 17:25:49;;;;;;;;;;;;;;;;;;5028039;28;992;-70
2022/05/27 17:28:15;;;;;;;;;;;;;;;;;;5026066;28;1485;-70
2022/05/27 17:30:42;;;;;;;;;;;;;;;;;;5035905;28;1511;-70
2022/05/27 17:33:09;;;;;;;;;;;;;;;;;;5045941;28;1918;-68
2022/05/27 17:35:35;;;;;;;;;;;;;;;;;;5034787;28;1264;-71
2022/05/27 17:38:01;;;;;;;;;;;;;;;;;;5028060;28;1099;-70
2022/05/27 17:40:28;;;;;;;;;;;;;;;;;;5028366;28;771;-70
2022/05/27 17:42:54;;;;;;;;;;;;;;;;;;5027531;28;1308;-71
2022/05/27 17:45:20;;;;;;;;;;;;;;;;;;5028112;28;1040;-70
2022/05/27 17:53:15;;;;;;;;;;;;;;;;;;5047896;28;1969;-70
2022/05/27 17:55:42;;;;;;;;;;;;;;;;;;5048331;28;1115;-70
2022/05/27 17:58:08;;;;;;;;;;;;;;;;;;5019938;28;1753;-69
2022/05/27 18:00:34;;;;;;;;;;;;;;;;;;5034749;28;1847;-69